Time;durP1;ratioP1;P1;durP2;ratioP2;P2;SDS_P1;SDS_P2;PMS_P1;PMS_P2;Temp;Humidity;BMP_temperature;BMP_pressure;BME280_temperature;BME280_humidity;BME280_pressure;Samples;Min_cycle;Max_cycle;Signal;HPM_P1;HPM_P2
2022/05/29 00:00:53;;;;;;;9.73;1.70;;;;;;;;;;5045595;28;20099;-87
2022/05/29 00:03:22;;;;;;;11.15;1.55;;;;;;;;;;5026579;28;20029;-88
2022/05/29 00:05:49;;;;;;;7.75;1.55;;;;;;;;;;5025237;28;20087;-87
2022/05/29 00:08:37;;;;;;;18.55;1.92;;;;;;;;;;5026157;28;20033;-87
2022/05/29 00:11:02;;;;;;;9.88;1.60;;;;;;;;;;5033052;28;20037;-87
2022/05/29 00:13:33;;;;;;;7.70;1.50;;;;;;;;;;5021628;28;20036;-87
2022/05/29 00:15:58;;;;;;;8.93;1.70;;;;;;;;;;5021489;28;20123;-87
2022/05/29 00:18:27;;;;;;;11.52;2.17;;;;;;;;;;5020082;28;20024;-87
2022/05/29 00:23:26;;;;;;;12.25;2.42;;;;;;;;;;5024271;28;20537;-71
2022/05/29 00:25:52;;;;;;;11.73;2.80;;;;;;;;;;5025428;28;20032;-71
2022/05/29 00:28:17;;;;;;;4.90;1.60;;;;;;;;;;5043814;28;20453;-71
2022/05/29 00:30:43;;;;;;;8.70;2.30;;;;;;;;;;5047985;28;20103;-71
2022/05/29 00:33:08;;;;;;;9.57;1.67;;;;;;;;;;5048583;28;20396;-73
2022/05/29 00:35:34;;;;;;;6.53;1.75;;;;;;;;;;5044973;28;20058;-72
2022/05/29 00:38:00;;;;;;;6.13;1.80;;;;;;;;;;5029146;28;20516;-72
2022/05/29 00:40:37;;;;;;;9.52;1.88;;;;;;;;;;5036310;28;20020;-72
2022/05/29 00:43:02;;;;;;;13.82;2.17;;;;;;;;;;5044793;28;20032;-72
2022/05/29 00:45:28;;;;;;;5.75;1.63;;;;;;;;;;5028453;28;20025;-71
2022/05/29 00:47:54;;;;;;;12.73;2.80;;;;;;;;;;5030887;28;20049;-71
2022/05/29 00:50:19;;;;;;;10.70;2.55;;;;;;;;;;5035057;28;20102;-72
2022/05/29 00:52:44;;;;;;;5.50;1.58;;;;;;;;;;5049469;28;20382;-71
2022/05/29 00:55:12;;;;;;;7.28;2.22;;;;;;;;;;5032502;28;20029;-71
2022/05/29 00:57:39;;;;;;;8.68;1.90;;;;;;;;;;5037580;28;20029;-72
2022/05/29 01:00:05;;;;;;;11.18;2.22;;;;;;;;;;5049413;28;20028;-71
2022/05/29 01:02:30;;;;;;;14.07;2.33;;;;;;;;;;5028703;28;20025;-71
2022/05/29 01:04:55;;;;;;;13.98;2.20;;;;;;;;;;5045465;28;20024;-71
2022/05/29 01:07:22;;;;;;;10.85;2.75;;;;;;;;;;5032229;28;20025;-72
2022/05/29 01:09:48;;;;;;;10.10;1.98;;;;;;;;;;5035173;28;20032;-71
2022/05/29 01:12:23;;;;;;;12.10;1.77;;;;;;;;;;5043094;28;20028;-72
2022/05/29 01:14:54;;;;;;;12.10;2.67;;;;;;;;;;5036515;28;20013;-71
2022/05/29 01:17:32;;;;;;;10.20;2.08;;;;;;;;;;5034570;28;20521;-71
2022/05/29 01:20:16;;;;;;;13.25;2.75;;;;;;;;;;5032940;28;20087;-71
2022/05/29 01:22:50;;;;;;;8.75;2.15;;;;;;;;;;5030371;28;20033;-71
2022/05/29 01:25:18;;;;;;;7.25;2.08;;;;;;;;;;5049531;28;20024;-71
2022/05/29 01:28:01;;;;;;;11.82;2.63;;;;;;;;;;5043272;28;20485;-71
2022/05/29 01:30:29;;;;;;;7.53;2.30;;;;;;;;;;5034640;28;20151;-71
2022/05/29 01:33:19;;;;;;;16.98;4.60;;;;;;;;;;5034138;28;20495;-71
2022/05/29 01:35:56;;;;;;;5.35;2.63;;;;;;;;;;5028985;28;20029;-71
2022/05/29 01:38:28;;;;;;;8.02;2.03;;;;;;;;;;5025157;28;20437;-71
2022/05/29 01:40:57;;;;;;;9.43;2.40;;;;;;;;;;5042478;28;20024;-71
2022/05/29 01:43:25;;;;;;;8.45;2.13;;;;;;;;;;5030268;28;20025;-71
2022/05/29 01:46:01;;;;;;;6.85;2.33;;;;;;;;;;5039569;28;20017;-71
2022/05/29 01:48:45;;;;;;;4.43;2.10;;;;;;;;;;5035941;28;20096;-72
2022/05/29 01:51:25;;;;;;;12.10;2.63;;;;;;;;;;5035199;28;20017;-71
2022/05/29 01:54:13;;;;;;;17.27;2.85;;;;;;;;;;5044138;28;20028;-72
2022/05/29 01:56:42;;;;;;;8.25;2.03;;;;;;;;;;5027561;28;20038;-71
2022/05/29 01:59:26;;;;;;;10.82;2.58;;;;;;;;;;5033090;28;20048;-71
2022/05/29 02:01:58;;;;;;;12.60;2.55;;;;;;;;;;5024940;28;20021;-71
2022/05/29 02:04:25;;;;;;;10.43;2.70;;;;;;;;;;5042358;28;20024;-71
2022/05/29 02:09:45;;;;;;;12.77;2.97;;;;;;;;;;5026930;28;20040;-71
2022/05/29 02:12:13;;;;;;;8.55;2.85;;;;;;;;;;5035661;28;20118;-71
2022/05/29 02:14:43;;;;;;;7.43;2.67;;;;;;;;;;5044270;28;20032;-71
2022/05/29 02:17:11;;;;;;;8.80;2.30;;;;;;;;;;5036471;28;20120;-71
2022/05/29 02:20:00;;;;;;;15.25;3.05;;;;;;;;;;5030105;28;20029;-71
2022/05/29 02:22:27;;;;;;;6.30;2.45;;;;;;;;;;4970773;28;20045;-71
2022/05/29 02:25:22;;;;;;;6.85;2.92;;;;;;;;;;5034672;28;20017;-71
2022/05/29 02:28:06;;;;;;;9.70;2.55;;;;;;;;;;5017999;28;20044;-71
2022/05/29 02:30:50;;;;;;;13.57;2.40;;;;;;;;;;5034069;28;20029;-71
2022/05/29 02:33:20;;;;;;;6.07;2.50;;;;;;;;;;5032531;28;20029;-71
2022/05/29 02:36:23;;;;;;;7.35;2.30;;;;;;;;;;5042970;28;20719;-71
2022/05/29 02:38:55;;;;;;;12.40;2.22;;;;;;;;;;5015387;28;20033;-71
2022/05/29 02:41:24;;;;;;;13.35;2.30;;;;;;;;;;5039921;28;20063;-71
2022/05/29 02:44:15;;;;;;;8.70;2.92;;;;;;;;;;5036003;28;20029;-71
2022/05/29 02:46:47;;;;;;;8.80;2.83;;;;;;;;;;5028202;28;20021;-71
2022/05/29 02:49:23;;;;;;;11.95;2.35;;;;;;;;;;5034171;28;20105;-71
2022/05/29 02:51:50;;;;;;;8.82;2.35;;;;;;;;;;5030048;28;20033;-71
2022/05/29 02:54:25;;;;;;;9.93;2.40;;;;;;;;;;5028556;28;20116;-71
2022/05/29 02:56:55;;;;;;;8.45;2.53;;;;;;;;;;5038274;28;20365;-71
2022/05/29 02:59:22;;;;;;;5.57;2.42;;;;;;;;;;5043075;28;20074;-71
2022/05/29 03:01:53;;;;;;;8.63;2.53;;;;;;;;;;5043420;28;20481;-71
2022/05/29 03:04:24;;;;;;;8.00;2.33;;;;;;;;;;5034203;28;20021;-72
2022/05/29 03:06:53;;;;;;;14.65;3.40;;;;;;;;;;5031883;28;20474;-71
2022/05/29 03:09:37;;;;;;;6.40;2.33;;;;;;;;;;5043247;28;20025;-71
2022/05/29 03:12:05;;;;;;;8.50;2.15;;;;;;;;;;5038877;28;20020;-71
2022/05/29 03:14:48;;;;;;;5.68;1.98;;;;;;;;;;5029745;28;20018;-71
2022/05/29 03:17:19;;;;;;;9.50;2.20;;;;;;;;;;5042112;28;20013;-71
2022/05/29 03:19:56;;;;;;;10.45;2.85;;;;;;;;;;5034779;28;20063;-70
2022/05/29 03:22:37;;;;;;;12.07;2.58;;;;;;;;;;5035029;28;20611;-69
2022/05/29 03:25:09;;;;;;;9.43;2.60;;;;;;;;;;5035753;28;20024;-71
2022/05/29 03:27:41;;;;;;;9.88;2.45;;;;;;;;;;5028945;28;20074;-72
2022/05/29 03:30:09;;;;;;;16.67;2.85;;;;;;;;;;5036998;28;20071;-69
2022/05/29 03:32:35;;;;;;;8.68;2.25;;;;;;;;;;5043726;28;20022;-69
2022/05/29 03:35:14;;;;;;;9.65;2.15;;;;;;;;;;5044349;28;20025;-69
2022/05/29 03:37:39;;;;;;;14.00;4.00;;;;;;;;;;5036009;28;20071;-69
2022/05/29 03:40:04;;;;;;;7.40;1.98;;;;;;;;;;5034010;28;20014;-69
2022/05/29 03:42:29;;;;;;;14.88;2.60;;;;;;;;;;5044059;28;20512;-69
2022/05/29 03:44:55;;;;;;;12.52;3.92;;;;;;;;;;5050512;28;20731;-69
2022/05/29 03:47:21;;;;;;;9.15;2.50;;;;;;;;;;5032285;28;20056;-68
2022/05/29 03:49:46;;;;;;;4.72;2.45;;;;;;;;;;5033764;28;20021;-70
2022/05/29 03:52:12;;;;;;;14.13;2.43;;;;;;;;;;5036653;28;20063;-69
2022/05/29 03:54:37;;;;;;;11.00;2.57;;;;;;;;;;5014018;28;20878;-69
2022/05/29 03:57:02;;;;;;;6.47;2.93;;;;;;;;;;5035768;28;20272;-70
2022/05/29 03:59:27;;;;;;;9.02;2.30;;;;;;;;;;5043526;28;20872;-69
2022/05/29 04:01:52;;;;;;;7.05;2.63;;;;;;;;;;5017191;28;20377;-70
2022/05/29 04:04:18;;;;;;;9.20;2.13;;;;;;;;;;5019660;28;20043;-70
2022/05/29 04:06:43;;;;;;;7.93;2.00;;;;;;;;;;5049690;28;20275;-71
2022/05/29 04:12:04;;;;;;;8.88;2.67;;;;;;;;;;5036755;28;20314;-71
2022/05/29 04:14:39;;;;;;;7.05;2.47;;;;;;;;;;5029852;28;20470;-71
2022/05/29 04:17:05;;;;;;;8.50;2.83;;;;;;;;;;5038988;28;20031;-71
2022/05/29 04:19:30;;;;;;;8.27;2.58;;;;;;;;;;5044036;28;20099;-71
2022/05/29 04:21:55;;;;;;;6.50;2.78;;;;;;;;;;5043572;28;20455;-71
2022/05/29 04:24:21;;;;;;;10.15;2.33;;;;;;;;;;5032256;28;20027;-71
2022/05/29 04:26:47;;;;;;;10.98;3.33;;;;;;;;;;5041325;28;20024;-71
2022/05/29 04:29:13;;;;;;;9.52;2.58;;;;;;;;;;5043559;28;20071;-71
2022/05/29 04:32:59;;;;;;;9.65;2.70;;;;;;;;;;5046738;28;20029;-71
2022/05/29 04:34:23;;;;;;;7.10;2.90;;;;;;;;;;5033236;28;20474;-71
2022/05/29 04:36:48;;;;;;;10.33;2.73;;;;;;;;;;5033234;28;20048;-71
2022/05/29 04:39:13;;;;;;;10.30;2.50;;;;;;;;;;5038010;28;20267;-70
2022/05/29 04:41:39;;;;;;;11.60;3.00;;;;;;;;;;5036328;28;20291;-70
2022/05/29 04:44:04;;;;;;;8.93;2.80;;;;;;;;;;5039119;28;20351;-71
2022/05/29 04:46:29;;;;;;;8.57;2.70;;;;;;;;;;5040249;28;20092;-71
2022/05/29 04:48:54;;;;;;;10.40;3.00;;;;;;;;;;5031617;28;20284;-70
2022/05/29 04:51:19;;;;;;;9.90;2.97;;;;;;;;;;5033709;28;20350;-70
2022/05/29 04:53:44;;;;;;;18.13;3.17;;;;;;;;;;5030549;28;20296;-70
2022/05/29 04:56:10;;;;;;;17.73;4.37;;;;;;;;;;5045316;28;20271;-70
2022/05/29 04:58:36;;;;;;;14.88;4.32;;;;;;;;;;5046372;28;20280;-70
2022/05/29 05:01:03;;;;;;;12.55;3.97;;;;;;;;;;5038410;28;20052;-70
2022/05/29 05:03:29;;;;;;;10.30;4.60;;;;;;;;;;5037988;28;20108;-70
2022/05/29 05:05:55;;;;;;;17.88;4.40;;;;;;;;;;5043829;28;20017;-70
2022/05/29 05:08:20;;;;;;;21.20;4.28;;;;;;;;;;5048218;28;20439;-69
2022/05/29 05:10:45;;;;;;;14.32;4.32;;;;;;;;;;5036472;28;20417;-70
2022/05/29 05:13:10;;;;;;;10.37;3.70;;;;;;;;;;5030615;28;20040;-70
2022/05/29 05:15:36;;;;;;;11.82;4.40;;;;;;;;;;5031201;28;20344;-70
2022/05/29 05:18:01;;;;;;;16.75;4.93;;;;;;;;;;5030542;28;20056;-70
2022/05/29 05:20:26;;;;;;;14.63;4.03;;;;;;;;;;5043421;28;20377;-70
2022/05/29 05:22:52;;;;;;;10.20;4.35;;;;;;;;;;5042331;28;20437;-70
2022/05/29 05:25:17;;;;;;;6.15;3.72;;;;;;;;;;5029737;28;20026;-70
2022/05/29 05:27:43;;;;;;;11.05;4.00;;;;;;;;;;5041443;28;20026;-71
2022/05/29 05:30:08;;;;;;;16.27;4.00;;;;;;;;;;5034641;28;20025;-70
2022/05/29 05:32:33;;;;;;;10.55;3.63;;;;;;;;;;5033809;28;20345;-70
2022/05/29 05:35:03;;;;;;;22.80;6.93;;;;;;;;;;5047812;28;20025;-68
2022/05/29 05:37:28;;;;;;;14.63;4.03;;;;;;;;;;5041283;28;20126;-70
2022/05/29 05:39:54;;;;;;;17.35;4.32;;;;;;;;;;5029834;28;20482;-69
2022/05/29 05:42:19;;;;;;;22.07;4.30;;;;;;;;;;5026540;28;20044;-69
2022/05/29 05:44:44;;;;;;;10.20;4.03;;;;;;;;;;5027390;28;20280;-70
2022/05/29 05:47:09;;;;;;;14.57;4.13;;;;;;;;;;5028206;28;20284;-69
2022/05/29 05:49:36;;;;;;;25.17;5.13;;;;;;;;;;5033848;28;20275;-69
2022/05/29 05:52:02;;;;;;;14.57;3.67;;;;;;;;;;5034649;28;20606;-70
2022/05/29 05:54:29;;;;;;;16.05;4.88;;;;;;;;;;5032335;28;20460;-70
2022/05/29 05:56:54;;;;;;;9.32;4.43;;;;;;;;;;5028630;28;20020;-74
2022/05/29 05:59:19;;;;;;;11.38;4.43;;;;;;;;;;5034006;28;20017;-69
2022/05/29 06:01:44;;;;;;;13.60;4.78;;;;;;;;;;5029211;28;20481;-69
2022/05/29 06:04:10;;;;;;;15.23;4.38;;;;;;;;;;5040853;28;20214;-71
2022/05/29 06:06:35;;;;;;;9.07;4.55;;;;;;;;;;5027963;28;20037;-71
2022/05/29 06:09:00;;;;;;;15.98;4.28;;;;;;;;;;5036817;28;20044;-70
2022/05/29 06:11:26;;;;;;;17.67;4.68;;;;;;;;;;5026737;28;20031;-69
2022/05/29 06:13:51;;;;;;;15.50;4.47;;;;;;;;;;5028968;28;20110;-70
2022/05/29 06:16:17;;;;;;;16.67;5.38;;;;;;;;;;5026602;28;20021;-70
2022/05/29 06:18:42;;;;;;;13.52;3.80;;;;;;;;;;5033713;28;20025;-71
2022/05/29 06:21:07;;;;;;;9.52;3.45;;;;;;;;;;5032150;28;20406;-70
2022/05/29 06:23:33;;;;;;;16.47;4.03;;;;;;;;;;5025368;28;20047;-71
2022/05/29 06:26:02;;;;;;;10.20;4.07;;;;;;;;;;5027628;28;20280;-69
2022/05/29 06:28:27;;;;;;;11.70;3.97;;;;;;;;;;5031673;28;20267;-69
2022/05/29 06:30:52;;;;;;;19.33;4.37;;;;;;;;;;5038459;28;20029;-69
2022/05/29 06:33:18;;;;;;;18.57;5.60;;;;;;;;;;5032533;28;20298;-71
2022/05/29 06:35:43;;;;;;;10.67;3.60;;;;;;;;;;5030212;28;20252;-69
2022/05/29 06:38:08;;;;;;;9.57;4.60;;;;;;;;;;5043325;28;20834;-69
2022/05/29 06:40:34;;;;;;;11.83;3.80;;;;;;;;;;5038474;28;20284;-69
2022/05/29 06:42:59;;;;;;;9.60;4.05;;;;;;;;;;5037884;28;20341;-69
2022/05/29 06:45:24;;;;;;;10.90;3.90;;;;;;;;;;5038784;28;20033;-71
2022/05/29 06:47:49;;;;;;;12.77;5.07;;;;;;;;;;5033169;28;20021;-69
2022/05/29 06:50:14;;;;;;;19.93;4.67;;;;;;;;;;5037859;28;20838;-71
2022/05/29 06:52:40;;;;;;;11.67;3.63;;;;;;;;;;5040023;28;20291;-69
2022/05/29 06:55:06;;;;;;;17.73;5.22;;;;;;;;;;5020845;28;20774;-71
2022/05/29 06:57:40;;;;;;;14.55;4.45;;;;;;;;;;5026741;28;20032;-69
2022/05/29 07:08:20;;;;;;;18.30;5.10;;;;;;;;;;5030561;28;20546;-71
2022/05/29 07:10:45;;;;;;;11.95;5.10;;;;;;;;;;5006520;28;20056;-72
2022/05/29 07:13:11;;;;;;;18.05;5.60;;;;;;;;;;5025494;28;20100;-70
2022/05/29 07:15:36;;;;;;;14.32;4.30;;;;;;;;;;5031820;28;20032;-71
2022/05/29 07:18:02;;;;;;;15.23;4.75;;;;;;;;;;5019735;28;20504;-70
2022/05/29 07:20:28;;;;;;;14.02;5.47;;;;;;;;;;5033548;28;20028;-69
2022/05/29 07:22:54;;;;;;;14.23;5.85;;;;;;;;;;5025284;28;20492;-70
2022/05/29 07:25:19;;;;;;;13.90;5.50;;;;;;;;;;5007246;28;20124;-70
2022/05/29 07:27:45;;;;;;;12.50;5.20;;;;;;;;;;5032899;28;20060;-70
2022/05/29 07:30:10;;;;;;;24.47;5.80;;;;;;;;;;5038517;28;20028;-70
2022/05/29 07:32:35;;;;;;;16.05;6.88;;;;;;;;;;5033226;28;20335;-69
2022/05/29 07:35:00;;;;;;;10.77;6.30;;;;;;;;;;5036028;28;20088;-71
2022/05/29 07:37:26;;;;;;;13.60;7.20;;;;;;;;;;5011464;28;20624;-70
2022/05/29 07:39:52;;;;;;;14.77;7.05;;;;;;;;;;5033759;28;20314;-70
2022/05/29 07:45:03;;;;;;;15.23;6.47;;;;;;;;;;5024622;28;20183;-73
2022/05/29 07:47:34;;;;;;;15.80;6.22;;;;;;;;;;5039964;28;20028;-71
2022/05/29 07:49:59;;;;;;;13.18;5.85;;;;;;;;;;5030864;28;20485;-70
2022/05/29 07:52:25;;;;;;;16.60;6.47;;;;;;;;;;5023763;28;20037;-75
2022/05/29 07:54:52;;;;;;;14.85;5.45;;;;;;;;;;5041794;28;20278;-70
2022/05/29 07:57:17;;;;;;;11.20;5.97;;;;;;;;;;5040522;28;20087;-70
2022/05/29 07:59:42;;;;;;;17.30;6.90;;;;;;;;;;5031826;28;20478;-69
2022/05/29 08:02:07;;;;;;;12.37;5.23;;;;;;;;;;5017961;28;20458;-70
2022/05/29 08:04:33;;;;;;;13.05;5.32;;;;;;;;;;5036240;28;20279;-72
2022/05/29 08:06:58;;;;;;;15.17;5.47;;;;;;;;;;5032128;28;20052;-70
2022/05/29 08:09:23;;;;;;;20.20;4.67;;;;;;;;;;5036343;28;20279;-73
2022/05/29 08:11:48;;;;;;;9.55;3.50;;;;;;;;;;5038173;28;20430;-71
2022/05/29 08:14:14;;;;;;;7.95;2.70;;;;;;;;;;5043419;28;20425;-72
2022/05/29 08:16:41;;;;;;;5.95;2.20;;;;;;;;;;5033510;28;20022;-72
2022/05/29 08:19:07;;;;;;;5.72;1.70;;;;;;;;;;5033088;28;20041;-70
2022/05/29 08:21:32;;;;;;;6.03;1.45;;;;;;;;;;5040382;28;20064;-71
2022/05/29 08:32:08;;;;;;;5.45;1.63;;;;;;;;;;5034435;28;20036;-72
2022/05/29 08:34:34;;;;;;;8.00;1.70;;;;;;;;;;5027637;28;20029;-70
2022/05/29 08:36:59;;;;;;;7.53;2.23;;;;;;;;;;5034704;28;20279;-70
2022/05/29 08:39:24;;;;;;;5.00;2.40;;;;;;;;;;5041462;28;20346;-71
2022/05/29 08:41:52;;;;;;;6.90;1.80;;;;;;;;;;5042140;28;20027;-72
2022/05/29 08:44:21;;;;;;;4.85;1.70;;;;;;;;;;5037937;28;20097;-72
2022/05/29 08:46:49;;;;;;;5.82;2.03;;;;;;;;;;5044905;28;20032;-72
2022/05/29 08:49:19;;;;;;;9.40;2.20;;;;;;;;;;5031435;28;20033;-70
2022/05/29 08:52:22;;;;;;;7.07;2.58;;;;;;;;;;5036764;28;20029;-72
2022/05/29 08:54:53;;;;;;;3.65;2.30;;;;;;;;;;4972148;28;20054;-70
2022/05/29 08:57:18;;;;;;;;;;;;;;;;;;4976688;28;20623;-69
2022/05/29 08:59:44;;;;;;;6.55;1.95;;;;;;;;;;4996800;28;19919;-69
2022/05/29 09:02:18;;;;;;;5.05;1.27;;;;;;;;;;5030403;28;20025;-70
2022/05/29 09:04:50;;;;;;;3.20;1.75;;;;;;;;;;5030218;28;20103;-69
2022/05/29 09:07:18;;;;;;;4.57;1.83;;;;;;;;;;5032287;28;20108;-70
2022/05/29 09:09:47;;;;;;;5.13;1.95;;;;;;;;;;5036909;28;20025;-70
2022/05/29 09:12:15;;;;;;;7.57;2.10;;;;;;;;;;5040229;28;20096;-69
2022/05/29 09:14:43;;;;;;;9.27;2.70;;;;;;;;;;5035679;28;20031;-69
2022/05/29 09:17:14;;;;;;;10.13;2.28;;;;;;;;;;5038870;28;20064;-71
2022/05/29 09:19:40;;;;;;;11.00;3.67;;;;;;;;;;5027478;28;20044;-71
2022/05/29 09:22:24;;;;;;;8.55;3.78;;;;;;;;;;5041040;28;20470;-71
2022/05/29 09:25:09;;;;;;;15.63;3.63;;;;;;;;;;5044068;28;20028;-72
2022/05/29 09:27:36;;;;;;;11.05;4.63;;;;;;;;;;5040533;28;20057;-70
2022/05/29 09:30:02;;;;;;;10.70;4.55;;;;;;;;;;5042723;28;20022;-71
2022/05/29 09:32:29;;;;;;;15.70;6.20;;;;;;;;;;5045318;28;20052;-69
2022/05/29 09:34:54;;;;;;;11.38;4.50;;;;;;;;;;5039761;28;20747;-71
2022/05/29 09:37:22;;;;;;;14.75;5.80;;;;;;;;;;5031375;28;20386;-71
2022/05/29 09:39:52;;;;;;;9.57;4.25;;;;;;;;;;5027472;28;20096;-71
2022/05/29 09:42:36;;;;;;;17.35;5.53;;;;;;;;;;5039598;28;20020;-71
2022/05/29 09:45:04;;;;;;;10.60;4.55;;;;;;;;;;5039238;28;20017;-71
2022/05/29 09:50:14;;;;;;;12.30;4.05;;;;;;;;;;5026038;28;20028;-70
2022/05/29 09:52:43;;;;;;;11.13;5.07;;;;;;;;;;5030549;28;20393;-71
2022/05/29 09:55:30;;;;;;;10.05;4.93;;;;;;;;;;5030576;28;20264;-69
2022/05/29 09:57:58;;;;;;;12.50;4.03;;;;;;;;;;5024014;28;20017;-69
2022/05/29 10:00:37;;;;;;;10.75;3.42;;;;;;;;;;5039672;28;20028;-70
2022/05/29 10:03:04;;;;;;;13.90;4.35;;;;;;;;;;5042931;28;20025;-70
2022/05/29 10:05:34;;;;;;;11.80;3.95;;;;;;;;;;5036627;28;20496;-69
2022/05/29 10:08:15;;;;;;;12.55;4.70;;;;;;;;;;5038898;28;20044;-69
2022/05/29 10:10:41;;;;;;;8.63;4.05;;;;;;;;;;5042597;28;20041;-71
2022/05/29 10:13:06;;;;;;;10.07;4.43;;;;;;;;;;5032496;28;20208;-70
2022/05/29 10:15:31;;;;;;;12.27;3.80;;;;;;;;;;5030878;28;20029;-70
2022/05/29 10:18:01;;;;;;;11.85;4.10;;;;;;;;;;5013533;28;20024;-71
2022/05/29 10:20:31;;;;;;;10.70;4.57;;;;;;;;;;5034770;28;20031;-71
2022/05/29 10:22:57;;;;;;;9.18;3.88;;;;;;;;;;5029316;28;20124;-70
2022/05/29 10:25:27;;;;;;;8.02;3.67;;;;;;;;;;5030728;28;20049;-70
2022/05/29 10:27:54;;;;;;;8.85;2.53;;;;;;;;;;5030782;28;20119;-70
2022/05/29 10:30:55;;;;;;;7.93;2.35;;;;;;;;;;5016703;28;20356;-71
2022/05/29 10:33:20;;;;;;;;;;;;;;;;;;4969173;28;20031;-70
2022/05/29 10:35:46;;;;;;;3.50;1.52;;;;;;;;;;5005331;28;19912;-70
2022/05/29 10:38:14;;;;;;;5.82;1.80;;;;;;;;;;5030352;28;20061;-70
2022/05/29 10:40:40;;;;;;;4.70;1.65;;;;;;;;;;5011847;28;20032;-70
2022/05/29 10:43:05;;;;;;;1.98;1.35;;;;;;;;;;5030173;28;20025;-70
2022/05/29 10:45:32;;;;;;;4.18;1.67;;;;;;;;;;5020771;28;20033;-70
2022/05/29 10:48:05;;;;;;;2.97;1.70;;;;;;;;;;5030768;28;20101;-69
2022/05/29 10:50:34;;;;;;;2.75;1.80;;;;;;;;;;5029242;28;21337;-69
2022/05/29 10:53:05;;;;;;;6.40;1.35;;;;;;;;;;5031002;28;20452;-68
2022/05/29 10:55:30;;;;;;;3.58;1.40;;;;;;;;;;5041109;28;20140;-68
2022/05/29 10:58:12;;;;;;;2.90;1.57;;;;;;;;;;5023712;28;20622;-70
2022/05/29 11:00:37;;;;;;;4.03;1.65;;;;;;;;;;5028602;28;20654;-70
2022/05/29 11:03:17;;;;;;;3.15;1.17;;;;;;;;;;5029672;28;20025;-70
2022/05/29 11:05:42;;;;;;;;;;;;;;;;;;5032313;28;20033;-70
2022/05/29 11:08:26;;;;;;;4.35;1.25;;;;;;;;;;5030263;28;19912;-70
2022/05/29 11:11:11;;;;;;;7.35;1.98;;;;;;;;;;5042003;28;20477;-70
2022/05/29 11:13:51;;;;;;;7.40;2.03;;;;;;;;;;5033275;28;20167;-70
2022/05/29 11:16:28;;;;;;;7.45;1.83;;;;;;;;;;5028427;28;20021;-70
2022/05/29 11:18:56;;;;;;;7.07;1.98;;;;;;;;;;5035390;28;20124;-70
2022/05/29 11:21:40;;;;;;;4.80;1.88;;;;;;;;;;5036819;28;20036;-70
2022/05/29 11:24:05;;;;;;;3.85;2.08;;;;;;;;;;5035319;28;20026;-70
2022/05/29 11:26:42;;;;;;;8.65;2.42;;;;;;;;;;5038580;28;20036;-70
2022/05/29 11:29:13;;;;;;;9.05;1.73;;;;;;;;;;5038650;28;20156;-70
2022/05/29 11:31:46;;;;;;;9.60;2.20;;;;;;;;;;5034352;28;20057;-70
2022/05/29 11:34:32;;;;;;;6.78;2.10;;;;;;;;;;5032289;28;20080;-70
2022/05/29 11:37:02;;;;;;;3.25;1.50;;;;;;;;;;5046114;28;20125;-70
2022/05/29 11:39:36;;;;;;;2.65;1.20;;;;;;;;;;5045750;28;20013;-70
2022/05/29 11:42:06;;;;;;;6.22;1.50;;;;;;;;;;5033715;28;20546;-70
2022/05/29 11:44:37;;;;;;;6.45;1.70;;;;;;;;;;5039610;28;20123;-70
2022/05/29 11:53:01;;;;;;;6.80;1.80;;;;;;;;;;5037573;28;20079;-70
2022/05/29 11:55:38;;;;;;;4.18;1.52;;;;;;;;;;5033346;28;20072;-70
2022/05/29 11:58:08;;;;;;;5.43;1.60;;;;;;;;;;5033333;28;20107;-70
2022/05/29 12:00:38;;;;;;;7.80;1.90;;;;;;;;;;5035077;28;20018;-70
2022/05/29 12:03:22;;;;;;;9.27;2.00;;;;;;;;;;5043413;28;20017;-70
2022/05/29 12:05:47;;;;;;;6.63;2.00;;;;;;;;;;5045755;28;20395;-70
2022/05/29 12:08:18;;;;;;;10.30;2.40;;;;;;;;;;5044545;28;20028;-70
2022/05/29 12:10:43;;;;;;;10.82;2.60;;;;;;;;;;5037615;28;20076;-71
2022/05/29 12:13:10;;;;;;;5.22;1.75;;;;;;;;;;5027524;28;20060;-69
2022/05/29 12:15:36;;;;;;;6.30;2.30;;;;;;;;;;5028748;28;20025;-69
2022/05/29 12:18:03;;;;;;;3.08;1.23;;;;;;;;;;5019326;28;20033;-70
2022/05/29 12:20:35;;;;;;;1.25;0.80;;;;;;;;;;5030073;28;20021;-68
2022/05/29 12:23:04;;;;;;;1.85;0.70;;;;;;;;;;5031984;28;20032;-69
2022/05/29 12:25:47;;;;;;;3.22;0.82;;;;;;;;;;5043481;28;20493;-70
2022/05/29 12:28:39;;;;;;;3.00;0.70;;;;;;;;;;5016668;28;20373;-69
2022/05/29 12:31:05;;;;;;;3.80;0.60;;;;;;;;;;5003825;28;20381;-69
2022/05/29 12:33:32;;;;;;;1.55;0.90;;;;;;;;;;5031322;28;20136;-69
2022/05/29 12:36:16;;;;;;;2.58;0.70;;;;;;;;;;5032433;28;20101;-69
2022/05/29 12:38:59;;;;;;;5.90;0.80;;;;;;;;;;5029578;28;20013;-69
2022/05/29 12:41:49;;;;;;;3.05;0.80;;;;;;;;;;5031951;28;20055;-70
2022/05/29 12:44:26;;;;;;;2.17;0.70;;;;;;;;;;5024860;28;20056;-69
2022/05/29 12:47:21;;;;;;;1.30;0.70;;;;;;;;;;5029826;28;20025;-69
2022/05/29 12:50:05;;;;;;;3.78;0.70;;;;;;;;;;5014077;28;20033;-69
2022/05/29 12:52:36;;;;;;;2.78;1.05;;;;;;;;;;5026306;28;20029;-69
2022/05/29 12:55:01;;;;;;;4.18;1.13;;;;;;;;;;5027467;28;20022;-69
2022/05/29 12:57:41;;;;;;;4.10;0.90;;;;;;;;;;5033352;28;20017;-69
2022/05/29 13:00:25;;;;;;;8.75;1.20;;;;;;;;;;5037117;28;20028;-70
2022/05/29 13:03:02;;;;;;;5.18;1.25;;;;;;;;;;5028864;28;20327;-70
2022/05/29 13:05:28;;;;;;;4.25;1.33;;;;;;;;;;5039015;28;20444;-69
2022/05/29 13:08:02;;;;;;;7.35;1.80;;;;;;;;;;5039843;28;20104;-69
2022/05/29 13:10:32;;;;;;;4.93;1.40;;;;;;;;;;5041962;28;20032;-69
2022/05/29 13:13:03;;;;;;;4.55;1.58;;;;;;;;;;5033103;28;20033;-69
2022/05/29 13:15:31;;;;;;;7.30;1.90;;;;;;;;;;5038523;28;20017;-70
2022/05/29 13:17:58;;;;;;;6.82;2.10;;;;;;;;;;5036419;28;20026;-69
2022/05/29 13:20:25;;;;;;;5.82;1.73;;;;;;;;;;5032134;28;20021;-70
2022/05/29 13:22:53;;;;;;;5.50;1.40;;;;;;;;;;5041816;28;20401;-70
2022/05/29 13:25:26;;;;;;;6.45;1.23;;;;;;;;;;5042187;28;20039;-70
2022/05/29 13:27:52;;;;;;;3.00;1.05;;;;;;;;;;5041057;28;20029;-70
2022/05/29 13:30:36;;;;;;;1.85;1.13;;;;;;;;;;5038438;28;20016;-70
2022/05/29 13:33:36;;;;;;;2.13;1.10;;;;;;;;;;5033771;28;20474;-70
2022/05/29 13:36:01;;;;;;;;;;;;;;;;;;4941268;29;20027;-70
2022/05/29 13:38:45;;;;;;;3.95;0.90;;;;;;;;;;5004160;28;19916;-70
2022/05/29 13:41:27;;;;;;;3.35;1.10;;;;;;;;;;5028561;28;20013;-70
2022/05/29 13:43:52;;;;;;;5.25;0.73;;;;;;;;;;5035999;28;20032;-70
2022/05/29 13:46:23;;;;;;;4.15;1.55;;;;;;;;;;5040004;28;20020;-70
2022/05/29 13:49:14;;;;;;;3.53;0.70;;;;;;;;;;5036107;28;20037;-70
2022/05/29 13:51:44;;;;;;;1.27;0.80;;;;;;;;;;5025591;28;20053;-70
2022/05/29 13:54:26;;;;;;;2.70;1.00;;;;;;;;;;5029227;28;20493;-71
2022/05/29 13:56:54;;;;;;;10.27;2.10;;;;;;;;;;5031715;28;20017;-71
2022/05/29 14:04:55;;;;;;;1.48;0.70;;;;;;;;;;5039781;28;20474;-71
2022/05/29 14:07:31;;;;;;;3.70;1.02;;;;;;;;;;5034606;28;20474;-70
2022/05/29 14:10:05;;;;;;;3.95;0.90;;;;;;;;;;5027405;28;20056;-70
2022/05/29 14:12:31;;;;;;;3.08;1.08;;;;;;;;;;5038557;28;20029;-69
2022/05/29 14:14:56;;;;;;;3.58;1.45;;;;;;;;;;5041242;28;20024;-70
2022/05/29 14:17:29;;;;;;;4.03;2.15;;;;;;;;;;5030985;28;20021;-70
2022/05/29 14:19:59;;;;;;;2.72;1.80;;;;;;;;;;5036846;28;20020;-70
2022/05/29 14:22:40;;;;;;;3.10;1.63;;;;;;;;;;5027639;28;20021;-70
2022/05/29 14:25:05;;;;;;;;;;;;;;;;;;5030776;28;20036;-70
2022/05/29 14:27:39;;;;;;;3.33;1.80;;;;;;;;;;5037237;28;19912;-71
2022/05/29 14:30:09;;;;;;;4.43;1.92;;;;;;;;;;5041594;28;20049;-71
2022/05/29 14:32:49;;;;;;;3.95;2.00;;;;;;;;;;5029912;28;20018;-71
2022/05/29 14:35:15;;;;;;;;;;;;;;;;;;5033963;28;20482;-70
2022/05/29 14:37:51;;;;;;;12.57;2.72;;;;;;;;;;5038699;28;20007;-69
2022/05/29 14:40:35;;;;;;;5.85;2.50;;;;;;;;;;5043783;28;20385;-70
2022/05/29 14:43:03;;;;;;;10.23;3.22;;;;;;;;;;5044531;28;20469;-70
2022/05/29 14:45:29;;;;;;;6.97;3.47;;;;;;;;;;5038575;28;20025;-72
2022/05/29 14:48:10;;;;;;;7.95;3.30;;;;;;;;;;5028290;28;20399;-72
2022/05/29 14:50:54;;;;;;;6.88;3.40;;;;;;;;;;5028139;28;20031;-72
2022/05/29 14:53:22;;;;;;;7.10;4.15;;;;;;;;;;5027908;28;20035;-72
2022/05/29 14:55:51;;;;;;;12.27;4.38;;;;;;;;;;5042873;28;20047;-71
2022/05/29 14:58:29;;;;;;;14.57;4.70;;;;;;;;;;5037255;28;20029;-72
2022/05/29 15:01:07;;;;;;;12.98;3.80;;;;;;;;;;5030355;28;20017;-71
2022/05/29 15:03:36;;;;;;;6.95;3.55;;;;;;;;;;5028778;28;20035;-72
2022/05/29 15:06:02;;;;;;;9.13;3.58;;;;;;;;;;5044091;28;20029;-72
2022/05/29 15:11:18;;;;;;;8.48;4.30;;;;;;;;;;5038915;28;20041;-71
2022/05/29 15:14:01;;;;;;;10.30;5.18;;;;;;;;;;5010826;28;20025;-71
2022/05/29 15:16:44;;;;;;;6.20;4.10;;;;;;;;;;5030522;28;20026;-71
2022/05/29 15:19:17;;;;;;;6.85;5.13;;;;;;;;;;5036290;28;20026;-71
2022/05/29 15:24:32;;;;;;;11.70;4.70;;;;;;;;;;5038951;28;20032;-71
2022/05/29 15:27:03;;;;;;;8.00;4.55;;;;;;;;;;5031035;28;20030;-72
2022/05/29 15:29:32;;;;;;;8.93;5.15;;;;;;;;;;5035070;28;20017;-70
2022/05/29 15:31:59;;;;;;;10.85;4.60;;;;;;;;;;5027991;28;20036;-70
2022/05/29 15:34:43;;;;;;;11.65;4.38;;;;;;;;;;5019799;28;20053;-71
2022/05/29 15:37:14;;;;;;;13.48;5.13;;;;;;;;;;5035633;28;20022;-69
2022/05/29 15:39:54;;;;;;;8.60;3.72;;;;;;;;;;5036600;28;20433;-70
2022/05/29 15:42:19;;;;;;;10.23;4.22;;;;;;;;;;5026891;28;20101;-69
2022/05/29 15:44:44;;;;;;;7.63;4.13;;;;;;;;;;5035052;28;20109;-70